Impacts TAF Board INFO
FOR SITUATIONAL AWARENESS. NOT TO BE USED FOR FLIGHT PLANNING PURPOSES.
IDs:

KATL - Atlanta/Hartsfield-J, GA, US

Issued at 0143 UTC 11 Dec 2017
Updated at 0219 UTC 11 Dec 2017
Potential Impact None Slight Moderate High
Time<<11/15Z 11/16Z 11/17Z 11/18Z 11/19Z 11/20Z 11/21Z 11/22Z 11/23Z 12/00Z 12/01Z 12/02Z 12/03Z>>
Type PRVL PRVL PRVL PRVL PRVL PRVL PRVL PRVL PRVL PRVL PRVL PRVL PRVL
VIS >6 >6 >6 >6 >6 >6 >6 >6 >6 >6 >6 >6 >6
CIG -- -- -- -- -- -- -- -- -- -- -- -- --
Cover SKC SKC SKC FEW FEW FEW FEW FEW FEW FEW FEW FEW FEW
FltCat VFR VFR VFR VFR VFR VFR VFR VFR VFR VFR VFR VFR VFR
WX -- -- -- -- -- -- -- -- -- -- -- -- --
WDir 270 270 270 250 250 250 250 250 240 240 240 240 240
WSpd 6 6 6 8 8 8 8 8 5 5 5 5 5
WGst -- -- -- -- -- -- -- -- -- -- -- -- --

Raw TAF
KATL 110143Z 1102/1206 27005KT P6SM SKC
  FM111400 27006KT P6SM SKC
  FM111800 25008KT P6SM FEW070
  FM112300 24005KT P6SM FEW250


METAR Board
Radar Display
Forecast Discussion

FOR SITUATIONAL AWARENESS. NOT TO BE USED FOR FLIGHT PLANNING PURPOSES.